Logo AVAMET
Benvolgut visitant, si us plau, ingressa Recuperar contrasenya
AVAMET paisatges

Dénia Betlems

Dades diàries. Acumulats / Últims 30 dies disponibles

Data Temperatura (°C) Humitat rel. (%) Pressió rel. (hPa) Vent (km/h) Precipitació
Mínima Mitjana Màxima Amplitud
tèrmica
Mínima Mitjana Màxima Mínima Mitjana Màxima Predom. Mitjana Ràfega
màxima
Total
(mm)
Índex-n
Mínima Mitjana Màxima Mínima Mitjana Màxima n
0 a 1
P0 max
mm 5'
Dades mensuals acumulades fins l'últim dia disponible
02/2020 6,7 10,2 15,1 14,6 14,8 20,9 27,1 20,4 22 71 94 1.013 1.025 1.038   0,3 20,4 0,7
Dades anuals acumulades fins l'últim dia disponible
2020 3,1 8,9 15,1 12,9 12,8 18,4 27,1 24,0 22 75 95 1.010 1.024 1.038   0,4 22,2 91,5
Últims 30 dies disponibles
27-02-2020 8,4     16,2     23,5 15,1 35 58 80 1.016 1.018 1.019 SE 0,4 11,1 0,0
26-02-2020 12,2     16,9     21,7 9,5 37 55 73 1.015 1.016 1.019 ONO 1,2 16,6 0,0
25-02-2020 10,0     18,1     27,1 17,1 22 50 77 1.013 1.015 1.020 O 1,0 11,1 0,0
24-02-2020 7,7     13,9     24,3 16,6 37 61 85 1.019 1.024 1.030 E 0,0 3,7 0,0
23-02-2020 8,3     13,0     21,0 12,7 52 73 94 1.029 1.034 1.038 SE 0,2 7,4 0,0
22-02-2020 6,7     12,6     21,1 14,4 37 64 91 1.029 1.031 1.034 E 0,1 5,5 0,0
21-02-2020 7,7     12,3     17,5 9,8 62 78 93 1.026 1.029 1.030 ESE 0,1 9,3 0,0
20-02-2020 8,0     11,4     17,5 9,5 67 81 94 1.022 1.025 1.028 E 1,0 14,8 0,0
19-02-2020 8,7     12,7     14,8 6,1 82 87 92 1.028 1.031 1.032 E 0,2 7,4 0,0
18-02-2020 13,3     14,0     14,9 1,6 80 86 92 1.029 1.031 1.032 ESE 0,5 9,3 0,0
17-02-2020 8,7     15,1     24,5 15,8 52 73 94 1.023 1.025 1.029 ESE 0,4 11,1 0,0
16-02-2020 11,6     14,7     22,5 10,9 61 77 93 1.024 1.026 1.028 SE 0,1 5,5 0,0
15-02-2020 8,9     13,3     20,8 11,9 63 78 92 1.024 1.026 1.027 ESE 0,2 7,4 0,0
14-02-2020 10,3     14,1     20,5 10,2 51 70 88 1.023 1.024 1.026 SE 0,0 5,5 0,0
13-02-2020 10,7     15,4     21,3 10,6 60 76 92 1.020 1.022 1.023 SE 0,1 7,4 0,0
12-02-2020 12,2     14,9     19,5 7,3 64 78 92 1.022 1.023 1.024 O 0,2 11,1 0,0
11-02-2020 11,8     16,2     24,0 12,2 49 70 91 1.020 1.023 1.026 ESE 0,1 7,4 0,0
10-02-2020 13,5     17,8     24,5 11,0 49 63 76 1.025 1.028 1.031 SE 0,3 11,1 0,0
09-02-2020 11,3     14,2     18,3 7,0 60 76 92 1.026 1.028 1.031 O 0,8 18,5 0,0
08-02-2020 7,0     11,5     17,9 10,9 68 81 94 1.022 1.024 1.027 E 0,2 7,4 0,0
07-02-2020 8,7     11,2     16,0 7,3 68 80 91 1.022 1.023 1.025 E 0,0 5,5 0,0
06-02-2020 7,1     10,6     16,0 8,9 64 79 94 1.023 1.026 1.028 ESE 0,2 9,3 0,0
05-02-2020 8,7     12,4     16,6 7,9 64 77 90 1.026 1.028 1.030 ESE 0,1 5,5 0,7
04-02-2020 13,2     18,9     26,7 13,5 36 54 72 1.021 1.024 1.026 E 0,2 9,3 0,0
03-02-2020 11,7     16,7     25,6 13,9 48 68 88 1.025 1.027 1.029 E 0,0 7,4 0,0
02-02-2020 13,0     17,4     23,8 10,8 55 70 84 1.026 1.027 1.029 SE 0,0 7,4 0,0
01-02-2020 15,1     18,6     23,7 8,6 53 65 76 1.020 1.022 1.026 ONO 1,2 20,4 0,0
31-01-2020 14,7     17,2     21,9 7,2 54 62 70 1.020 1.021 1.022 ONO 1,6 14,8 0,0
30-01-2020 12,4     16,3     22,5 10,1 49 63 77 1.019 1.021 1.022 SO 0,2 9,3 0,0
29-01-2020 13,0     17,2     22,8 9,8 53 65 77 1.020 1.021 1.022 ONO 1,3 18,5 0,0
Últims 13 mesos disponibles
01/2020 3,1 7,9 14,7 11,3 12,8 16,2 22,8 19,7 62 79 92 1.013 1.024 1.031 ESE 0,5 22,2 90,8
12/2019 6,6 10,6 19,1 13,6 13,6 17,9 23,5 16,9 52 72 92 1.002 1.018 1.032 ESE 0,9 42,5 138,8
11/2019 6,0 12,4 21,5 15,7 15,8 19,9 27,6 21,6 49 60 75 997 1.010 1.018 ONO 1,9 33,3 9,1
10/2019 10,9 16,4 19,8 20,2 16,2 25,1 33,1 22,2 51 71 87 1.007 1.017 1.023 ESE 0,6 22,2 66,8
09/2019 14,1 20,2 25,1 24,0 23,1 28,3 34,7 20,6 56 75 92 1.011 1.019 1.025 E 0,9 27,8 175,8
08/2019 19,3 23,0 27,7 27,7 28,1 33,4 40,3 21,0 51 64 78 1.012 1.017 1.021 ESE 1,2 22,2 55,6
07/2019 21,1 23,0 27,7 28,1 31,5 33,7 37,9 16,8 46 61 75 1.007 1.015 1.021 ESE 1,1 25,9 1,4
06/2019 13,8 18,8 28,1 24,1 24,2 29,9 37,8 24,0 35 59 75 1.009 1.016 1.022 ESE 1,6 25,9 1,4
05/2019 11,2 14,8 20,2 19,5 20,4 24,8 31,1 19,9 52 64 76 1.004 1.015 1.024 ESE 1,4 25,9 6,3
04/2019 9,1 11,7 15,5 15,5 14,3 20,4 30,0 20,9 48 71 97 993 1.007 1.022 ONO 1,5 35,1 259,6
03/2019 7,4 9,6 15,1 15,1 13,5 21,4 29,6 22,2 38 60 89 1.004 1.017 1.023 SE 0,9 24,1 22,4
02/2019 4,9 7,6 11,6 12,2 13,7 18,5 23,9 19,0 40 66 84 989 1.018 1.027 SE 0,9 34,0 0,0
01/2019 2,0 7,3 13,5 11,0 11,7 16,4 21,2 19,2 45 63 84 996 1.009 1.021 ONO 1,1 27,8 3,5
Tots els anys disponibles
2019 2,0 14,9 28,1 19,1 11,7 24,4 40,3 38,3 35 66 97 989 1.015 1.032 ESE 1,2 42,5 740,7
Pressió (hPa)
Precipitació (mm)
Nota sobre les dades: s'avisa a l'usuari de la provisionalitat i no oficialitat d'aquestes dades
Logo AVAMET blanc
Web allotjada a Sollutia
Llicència de Creative CommonsLa web d'AVAMET i els seus continguts estan subjectes a una llicència de
Reconeixement - No Comercial - Compartir igual
Últimes estacions:  Forcall (Ajuntament Soci), Sant Joanet (Soci), Marines (Soci), Vilallonga - Serpis (Soci), Sorita (AVAMET), Gorga (Soci) - - -